Time;durP1;ratioP1;P1;durP2;ratioP2;P2;SDS_P1;SDS_P2;PMS_P1;PMS_P2;Temp;Humidity;BMP_temperature;BMP_pressure;BME280_temperature;BME280_humidity;BME280_pressure;Samples;Min_cycle;Max_cycle;Signal;HPM_P1;HPM_P2
2023/02/26 00:00:21;;;;;;;2.57;1.03;;;;;;;;;;4966202;28;20508;-69
2023/02/26 00:02:47;;;;;;;4.07;1.00;;;;;;;;;;4969887;28;20353;-69
2023/02/26 00:05:12;;;;;;;2.70;0.70;;;;;;;;;;4968996;28;20186;-69
2023/02/26 00:07:38;;;;;;;2.70;1.00;;;;;;;;;;4968178;28;20553;-69
2023/02/26 00:10:04;;;;;;;3.27;0.93;;;;;;;;;;4966865;28;20198;-69
2023/02/26 00:12:30;;;;;;;0.90;0.70;;;;;;;;;;4967834;28;20473;-69
2023/02/26 00:14:55;;;;;;;7.07;1.33;;;;;;;;;;4969624;28;20788;-69
2023/02/26 00:17:30;;;;;;;3.00;0.90;;;;;;;;;;4962193;28;20660;-69
2023/02/26 00:19:55;;;;;;;1.60;0.90;;;;;;;;;;4960064;28;20248;-69
2023/02/26 00:22:21;;;;;;;3.10;0.80;;;;;;;;;;4962650;28;20934;-69
2023/02/26 00:24:46;;;;;;;1.30;0.80;;;;;;;;;;4963799;28;20497;-69
2023/02/26 00:27:11;;;;;;;2.80;0.80;;;;;;;;;;4964060;28;20210;-69
2023/02/26 00:29:37;;;;;;;2.20;0.70;;;;;;;;;;4960339;28;20229;-69
2023/02/26 00:32:02;;;;;;;2.60;0.90;;;;;;;;;;4962755;28;20228;-68
2023/02/26 00:34:28;;;;;;;2.10;0.80;;;;;;;;;;4955617;28;20178;-68
2023/02/26 00:37:15;;;;;;;2.00;0.80;;;;;;;;;;4959556;28;20214;-68
2023/02/26 00:39:53;;;;;;;6.20;1.47;;;;;;;;;;4961142;28;20201;-68
2023/02/26 00:42:19;;;;;;;4.57;1.30;;;;;;;;;;4960119;28;20437;-68
2023/02/26 00:44:44;;;;;;;2.17;1.00;;;;;;;;;;4962766;28;20472;-68
2023/02/26 00:47:13;;;;;;;3.60;0.90;;;;;;;;;;4959886;28;20297;-69
2023/02/26 00:49:57;;;;;;;1.60;0.93;;;;;;;;;;4962269;28;20198;-68
2023/02/26 00:52:37;;;;;;;1.70;0.90;;;;;;;;;;4968545;28;20520;-68
2023/02/26 00:55:02;;;;;;;1.00;0.90;;;;;;;;;;4967938;28;20426;-68
2023/02/26 00:57:28;;;;;;;2.67;0.80;;;;;;;;;;4966117;28;20434;-69
2023/02/26 00:59:53;;;;;;;5.73;1.00;;;;;;;;;;4965291;28;20186;-68
2023/02/26 01:02:18;;;;;;;1.17;0.83;;;;;;;;;;4967102;28;20794;-68
2023/02/26 01:04:45;;;;;;;2.70;1.17;;;;;;;;;;4968228;28;20194;-68
2023/02/26 01:07:10;;;;;;;2.63;1.17;;;;;;;;;;4964962;28;20202;-68
2023/02/26 01:09:36;;;;;;;3.57;0.73;;;;;;;;;;4967306;28;20448;-68
2023/02/26 01:12:10;;;;;;;1.30;0.70;;;;;;;;;;4967097;28;20198;-68
2023/02/26 01:14:35;;;;;;;5.30;0.80;;;;;;;;;;4958992;28;20174;-68
2023/02/26 01:17:01;;;;;;;1.67;0.90;;;;;;;;;;4966876;28;20447;-68
2023/02/26 01:19:30;;;;;;;2.20;0.80;;;;;;;;;;4967543;28;20178;-68
2023/02/26 01:22:21;;;;;;;1.27;0.80;;;;;;;;;;4965549;28;20214;-68
2023/02/26 01:24:48;;;;;;;2.17;0.80;;;;;;;;;;4966185;28;20430;-68
2023/02/26 01:27:13;;;;;;;1.40;0.90;;;;;;;;;;4966417;28;20488;-68
2023/02/26 01:29:38;;;;;;;1.07;0.80;;;;;;;;;;4961825;28;20969;-68
2023/02/26 01:32:13;;;;;;;1.80;0.83;;;;;;;;;;4962362;28;20670;-69
2023/02/26 01:34:43;;;;;;;5.53;1.00;;;;;;;;;;4962744;28;20706;-69
2023/02/26 01:37:18;;;;;;;2.73;0.93;;;;;;;;;;4954724;28;20469;-69
2023/02/26 01:39:47;;;;;;;1.87;0.73;;;;;;;;;;4945044;28;20438;-68
2023/02/26 01:42:18;;;;;;;1.33;0.80;;;;;;;;;;4958041;28;20441;-68
2023/02/26 01:44:43;;;;;;;1.97;1.13;;;;;;;;;;4960709;28;20449;-69
2023/02/26 01:47:17;;;;;;;5.77;1.60;;;;;;;;;;4957805;28;20497;-71
2023/02/26 01:49:43;;;;;;;1.53;0.90;;;;;;;;;;4965322;28;20597;-68
2023/02/26 01:52:27;;;;;;;2.53;1.10;;;;;;;;;;4967930;28;20557;-68
2023/02/26 01:54:52;;;;;;;3.90;0.97;;;;;;;;;;4966639;28;20175;-68
2023/02/26 01:57:19;;;;;;;1.90;0.70;;;;;;;;;;4964842;28;20613;-68
2023/02/26 01:59:46;;;;;;;2.63;0.87;;;;;;;;;;4964687;28;20262;-68
2023/02/26 02:02:13;;;;;;;5.23;0.90;;;;;;;;;;4971457;28;20444;-68
2023/02/26 02:04:39;;;;;;;1.93;0.87;;;;;;;;;;4968530;28;20504;-69
2023/02/26 02:07:05;;;;;;;2.60;0.90;;;;;;;;;;4971339;28;21512;-68
2023/02/26 02:09:30;;;;;;;3.03;1.00;;;;;;;;;;4967948;28;20655;-68
2023/02/26 02:12:14;;;;;;;3.60;0.93;;;;;;;;;;4970292;28;20210;-69
2023/02/26 02:14:52;;;;;;;2.00;0.80;;;;;;;;;;4971253;28;20178;-68
2023/02/26 02:17:23;;;;;;;3.00;0.70;;;;;;;;;;4961363;28;20535;-68
2023/02/26 02:19:54;;;;;;;3.57;0.90;;;;;;;;;;4964596;28;20429;-68
2023/02/26 02:22:19;;;;;;;1.83;1.00;;;;;;;;;;4962665;28;20520;-68
2023/02/26 02:25:09;;;;;;;1.17;0.73;;;;;;;;;;4963229;28;20442;-68
2023/02/26 02:27:42;;;;;;;1.13;0.80;;;;;;;;;;4961677;28;20292;-69
2023/02/26 02:30:19;;;;;;;2.23;1.13;;;;;;;;;;4959112;28;20429;-68
2023/02/26 02:32:44;;;;;;;1.47;0.80;;;;;;;;;;4963054;28;20468;-68
2023/02/26 02:35:16;;;;;;;1.43;0.70;;;;;;;;;;4961001;28;20444;-68
2023/02/26 02:37:42;;;;;;;2.10;0.80;;;;;;;;;;4970933;28;20277;-68
2023/02/26 02:40:10;;;;;;;1.97;0.77;;;;;;;;;;4958202;28;20448;-68
2023/02/26 02:42:42;;;;;;;6.00;0.80;;;;;;;;;;4965100;28;20253;-68
2023/02/26 02:45:10;;;;;;;2.73;0.93;;;;;;;;;;4967453;28;20421;-68
2023/02/26 02:47:38;;;;;;;3.60;1.20;;;;;;;;;;4967108;28;20462;-69
2023/02/26 02:50:10;;;;;;;4.40;1.20;;;;;;;;;;4966640;28;20942;-68
2023/02/26 02:52:51;;;;;;;3.00;0.97;;;;;;;;;;4967106;28;20464;-68
2023/02/26 02:55:23;;;;;;;2.80;0.80;;;;;;;;;;4963499;28;20449;-68
2023/02/26 02:57:59;;;;;;;3.20;0.70;;;;;;;;;;4962959;28;20446;-68
2023/02/26 03:00:25;;;;;;;1.97;0.90;;;;;;;;;;4956424;28;20436;-69
2023/02/26 03:02:58;;;;;;;2.50;0.80;;;;;;;;;;4961290;28;20445;-68
2023/02/26 03:05:23;;;;;;;3.60;0.80;;;;;;;;;;4961330;28;20437;-68
2023/02/26 03:07:52;;;;;;;2.13;0.60;;;;;;;;;;4961987;28;20899;-68
2023/02/26 03:10:20;;;;;;;1.73;0.80;;;;;;;;;;4959185;23;20818;-74
2023/02/26 03:12:45;;;;;;;2.17;0.80;;;;;;;;;;4942349;28;20474;-74
2023/02/26 03:15:11;;;;;;;1.60;0.70;;;;;;;;;;4950855;28;20969;-74
2023/02/26 03:18:03;;;;;;;1.23;0.67;;;;;;;;;;4943481;28;20490;-74
2023/02/26 03:20:32;;;;;;;2.50;0.80;;;;;;;;;;4938832;28;20483;-74
2023/02/26 03:22:58;;;;;;;1.90;0.80;;;;;;;;;;4938340;28;20440;-74
2023/02/26 03:25:27;;;;;;;1.47;0.80;;;;;;;;;;4938495;28;20454;-74
2023/02/26 03:28:06;;;;;;;1.70;0.80;;;;;;;;;;4937007;28;20688;-74
2023/02/26 03:30:47;;;;;;;2.20;1.17;;;;;;;;;;4953959;28;21045;-74
2023/02/26 03:33:15;;;;;;;3.17;1.00;;;;;;;;;;4938980;28;20476;-74
2023/02/26 03:35:46;;;;;;;2.60;0.73;;;;;;;;;;4940396;28;20430;-74
2023/02/26 03:38:14;;;;;;;3.17;0.80;;;;;;;;;;4939823;28;20921;-74
2023/02/26 03:40:46;;;;;;;1.93;0.80;;;;;;;;;;4935070;28;20473;-74
2023/02/26 03:43:13;;;;;;;8.60;1.43;;;;;;;;;;4938149;29;20443;-74
2023/02/26 03:45:40;;;;;;;4.90;1.70;;;;;;;;;;4951141;28;20439;-74
2023/02/26 03:58:54;;;;;;;1.43;1.23;;;;;;;;;;5138273;27;20432;-70
2023/02/26 04:01:26;;;;;;;2.70;0.80;;;;;;;;;;5117631;27;21108;-69
2023/02/26 04:03:57;;;;;;;2.50;0.93;;;;;;;;;;5121990;27;20176;-70
2023/02/26 04:06:23;;;;;;;1.60;0.80;;;;;;;;;;5115318;28;20976;-70
2023/02/26 04:08:49;;;;;;;1.80;0.90;;;;;;;;;;5107798;28;20566;-70
2023/02/26 04:11:18;;;;;;;1.30;0.90;;;;;;;;;;5107501;28;20257;-70
2023/02/26 04:13:44;;;;;;;5.20;0.80;;;;;;;;;;5113150;28;20177;-70
2023/02/26 04:16:09;;;;;;;2.47;1.20;;;;;;;;;;5118572;28;20424;-70
2023/02/26 04:18:34;;;;;;;4.40;1.23;;;;;;;;;;5115010;28;20173;-70
2023/02/26 04:21:00;;;;;;;2.40;0.97;;;;;;;;;;5116355;28;20172;-70
2023/02/26 04:23:28;;;;;;;3.47;0.80;;;;;;;;;;5117060;28;20193;-70
2023/02/26 04:25:53;;;;;;;3.03;1.00;;;;;;;;;;5111570;28;20293;-70
2023/02/26 04:28:18;;;;;;;3.40;0.90;;;;;;;;;;5112483;28;20855;-70
2023/02/26 04:30:43;;;;;;;3.93;1.20;;;;;;;;;;5118093;28;20174;-70
2023/02/26 04:33:09;;;;;;;1.90;0.83;;;;;;;;;;5113269;27;20178;-70
2023/02/26 04:35:34;;;;;;;2.00;0.90;;;;;;;;;;5121834;27;20194;-70
2023/02/26 04:37:59;;;;;;;2.70;0.90;;;;;;;;;;5110644;28;20178;-70
2023/02/26 04:40:25;;;;;;;1.47;0.70;;;;;;;;;;5105032;27;20606;-70
2023/02/26 04:42:50;;;;;;;2.03;0.90;;;;;;;;;;5102607;28;20195;-70
2023/02/26 04:45:15;;;;;;;1.33;0.70;;;;;;;;;;5102753;28;20194;-69
2023/02/26 04:47:40;;;;;;;1.13;0.73;;;;;;;;;;5107236;28;20404;-70
2023/02/26 04:50:06;;;;;;;2.60;0.90;;;;;;;;;;5110785;27;20200;-70
2023/02/26 04:52:32;;;;;;;3.30;0.80;;;;;;;;;;5105176;27;20184;-69
2023/02/26 04:54:57;;;;;;;1.17;0.90;;;;;;;;;;5109639;28;20959;-70
2023/02/26 04:57:22;;;;;;;1.63;0.80;;;;;;;;;;5106264;27;20196;-70
2023/02/26 04:59:47;;;;;;;2.30;1.00;;;;;;;;;;5090852;28;20178;-70
2023/02/26 05:02:13;;;;;;;1.43;0.70;;;;;;;;;;5085881;28;20182;-70
2023/02/26 05:04:38;;;;;;;1.27;0.80;;;;;;;;;;5092746;28;20533;-70
2023/02/26 05:07:03;;;;;;;2.27;0.90;;;;;;;;;;5089942;28;20288;-70
2023/02/26 05:09:29;;;;;;;1.40;0.70;;;;;;;;;;5089613;28;20178;-70
2023/02/26 05:11:54;;;;;;;4.97;1.10;;;;;;;;;;5088546;28;20165;-70
2023/02/26 05:14:19;;;;;;;3.70;0.90;;;;;;;;;;5094790;28;20201;-70
2023/02/26 05:16:45;;;;;;;1.60;0.80;;;;;;;;;;5093136;28;20200;-70
2023/02/26 05:19:10;;;;;;;3.97;0.77;;;;;;;;;;5080583;28;20249;-70
2023/02/26 05:21:36;;;;;;;1.47;0.80;;;;;;;;;;5096538;28;20556;-70
2023/02/26 05:24:01;;;;;;;2.23;0.80;;;;;;;;;;5089968;28;20174;-70
2023/02/26 05:26:26;;;;;;;1.90;0.80;;;;;;;;;;5101327;28;20194;-70
2023/02/26 05:28:52;;;;;;;1.30;0.87;;;;;;;;;;5101774;28;20588;-71
2023/02/26 05:31:17;;;;;;;2.37;0.97;;;;;;;;;;5102725;28;20170;-71
2023/02/26 05:33:42;;;;;;;2.80;1.00;;;;;;;;;;5098374;28;20171;-70
2023/02/26 05:36:08;;;;;;;1.57;0.70;;;;;;;;;;5101238;28;20938;-71
2023/02/26 05:38:35;;;;;;;3.60;0.80;;;;;;;;;;5098221;28;20726;-71
2023/02/26 05:41:01;;;;;;;1.50;0.70;;;;;;;;;;5100651;28;20166;-71
2023/02/26 05:43:26;;;;;;;0.73;0.60;;;;;;;;;;5098036;28;20415;-70
2023/02/26 05:45:52;;;;;;;3.13;1.00;;;;;;;;;;5099652;28;20201;-70
2023/02/26 05:48:17;;;;;;;1.70;0.80;;;;;;;;;;5101767;28;20206;-70
2023/02/26 05:50:42;;;;;;;1.90;0.80;;;;;;;;;;5101426;28;21079;-70
2023/02/26 05:53:08;;;;;;;1.70;0.70;;;;;;;;;;5113834;27;20261;-70
2023/02/26 05:55:33;;;;;;;1.87;0.90;;;;;;;;;;5096941;28;20223;-70
2023/02/26 05:57:59;;;;;;;1.17;0.60;;;;;;;;;;5105013;27;20250;-70
2023/02/26 06:00:24;;;;;;;5.00;1.10;;;;;;;;;;5097828;28;20677;-70
2023/02/26 06:02:49;;;;;;;1.90;0.70;;;;;;;;;;5100932;28;20192;-70
2023/02/26 06:05:17;;;;;;;2.00;0.80;;;;;;;;;;5099324;28;20197;-70
2023/02/26 06:07:42;;;;;;;1.37;0.80;;;;;;;;;;5097310;28;20202;-70
2023/02/26 06:10:08;;;;;;;1.83;0.90;;;;;;;;;;5098661;28;20416;-70
2023/02/26 06:12:34;;;;;;;0.90;0.70;;;;;;;;;;5099152;28;20181;-70
2023/02/26 06:15:00;;;;;;;1.67;0.90;;;;;;;;;;5100529;28;20436;-70
2023/02/26 06:17:25;;;;;;;2.50;0.80;;;;;;;;;;5098208;28;20640;-70
2023/02/26 06:19:51;;;;;;;4.20;1.00;;;;;;;;;;5098935;28;20184;-70
2023/02/26 06:22:16;;;;;;;1.20;0.70;;;;;;;;;;5088023;28;20268;-70
2023/02/26 06:24:42;;;;;;;5.73;0.90;;;;;;;;;;5087526;28;20557;-70
2023/02/26 06:27:07;;;;;;;2.10;0.90;;;;;;;;;;5094048;28;20705;-70
2023/02/26 06:29:33;;;;;;;1.33;0.90;;;;;;;;;;5080249;28;20175;-70
2023/02/26 06:31:58;;;;;;;1.73;0.60;;;;;;;;;;5088606;28;20219;-70
2023/02/26 06:34:23;;;;;;;1.47;1.10;;;;;;;;;;5085515;28;20178;-70
2023/02/26 06:36:49;;;;;;;3.33;1.10;;;;;;;;;;5084298;28;20292;-70
2023/02/26 06:39:16;;;;;;;3.37;0.90;;;;;;;;;;5087050;28;20456;-70
2023/02/26 06:41:42;;;;;;;0.90;0.70;;;;;;;;;;5082109;28;20196;-70
2023/02/26 06:44:08;;;;;;;3.10;1.00;;;;;;;;;;5089981;28;20432;-70
2023/02/26 06:46:34;;;;;;;0.93;0.80;;;;;;;;;;5089142;28;20206;-70
2023/02/26 06:48:59;;;;;;;2.30;1.10;;;;;;;;;;5085815;28;20428;-70
2023/02/26 06:51:24;;;;;;;2.57;1.10;;;;;;;;;;5091255;28;20174;-70
2023/02/26 06:53:50;;;;;;;2.17;0.80;;;;;;;;;;5095070;28;20687;-70
2023/02/26 06:56:15;;;;;;;2.40;1.13;;;;;;;;;;5087185;28;20194;-71
2023/02/26 06:58:40;;;;;;;1.50;1.03;;;;;;;;;;5078946;28;20661;-70
2023/02/26 07:01:05;;;;;;;1.43;0.80;;;;;;;;;;5088972;28;20171;-70
2023/02/26 07:03:31;;;;;;;1.13;0.87;;;;;;;;;;5088850;28;20231;-70
2023/02/26 07:05:56;;;;;;;1.37;0.80;;;;;;;;;;5083727;28;20201;-70
2023/02/26 07:08:22;;;;;;;1.33;0.90;;;;;;;;;;5086792;28;20232;-70
2023/02/26 07:10:48;;;;;;;2.43;0.80;;;;;;;;;;5083572;28;20205;-70
2023/02/26 07:13:14;;;;;;;1.10;0.70;;;;;;;;;;5085043;28;20990;-70
2023/02/26 07:15:39;;;;;;;4.40;1.07;;;;;;;;;;5086406;28;20205;-70
2023/02/26 07:18:04;;;;;;;2.90;1.10;;;;;;;;;;5089332;28;20178;-71
2023/02/26 07:20:30;;;;;;;2.20;1.03;;;;;;;;;;5102402;27;20182;-70
2023/02/26 07:22:56;;;;;;;2.80;0.80;;;;;;;;;;5088812;28;20264;-70
2023/02/26 07:25:21;;;;;;;2.00;1.10;;;;;;;;;;5083595;28;20209;-70
2023/02/26 07:27:50;;;;;;;2.10;0.90;;;;;;;;;;5085829;28;20917;-70
2023/02/26 07:30:15;;;;;;;1.50;0.80;;;;;;;;;;5082188;28;20227;-70
2023/02/26 07:32:41;;;;;;;3.23;0.90;;;;;;;;;;5086039;28;20891;-70
2023/02/26 07:35:06;;;;;;;2.17;0.90;;;;;;;;;;5089911;28;20203;-70
2023/02/26 07:37:31;;;;;;;1.73;0.80;;;;;;;;;;5086181;28;20672;-70
2023/02/26 07:39:57;;;;;;;3.53;0.93;;;;;;;;;;5087454;28;20260;-71
2023/02/26 07:42:22;;;;;;;1.20;0.70;;;;;;;;;;5089004;28;20197;-70
2023/02/26 07:44:47;;;;;;;1.23;0.90;;;;;;;;;;5085137;28;20633;-70
2023/02/26 07:47:13;;;;;;;1.63;0.90;;;;;;;;;;5090879;28;20214;-70
2023/02/26 07:49:38;;;;;;;1.53;0.80;;;;;;;;;;5088091;28;20185;-70
2023/02/26 07:52:04;;;;;;;1.57;0.77;;;;;;;;;;5089405;28;20187;-70
2023/02/26 07:54:32;;;;;;;0.93;0.70;;;;;;;;;;5087739;28;20205;-70
2023/02/26 07:56:57;;;;;;;2.00;0.63;;;;;;;;;;5084034;28;20500;-70
2023/02/26 07:59:22;;;;;;;0.73;0.60;;;;;;;;;;5078851;28;20432;-70
2023/02/26 08:01:51;;;;;;;1.97;0.73;;;;;;;;;;5087752;28;20232;-70
2023/02/26 08:04:16;;;;;;;1.00;0.60;;;;;;;;;;5092599;28;20572;-70
2023/02/26 08:06:41;;;;;;;1.50;0.60;;;;;;;;;;5087653;28;20470;-71
2023/02/26 08:09:07;;;;;;;2.53;0.60;;;;;;;;;;5089214;28;20182;-70
2023/02/26 08:11:35;;;;;;;2.33;0.60;;;;;;;;;;5083040;28;20279;-70
2023/02/26 08:14:01;;;;;;;2.50;0.67;;;;;;;;;;5085464;28;20652;-69
2023/02/26 08:16:28;;;;;;;1.23;0.70;;;;;;;;;;5078761;28;20576;-73
2023/02/26 08:18:54;;;;;;;1.37;0.80;;;;;;;;;;5084112;28;20186;-69
2023/02/26 08:21:19;;;;;;;3.03;0.97;;;;;;;;;;5085004;28;20915;-72
2023/02/26 08:23:44;;;;;;;1.17;0.70;;;;;;;;;;5080068;28;20452;-70
2023/02/26 08:26:11;;;;;;;1.57;0.80;;;;;;;;;;5089388;28;20631;-72
2023/02/26 08:28:36;;;;;;;2.87;0.77;;;;;;;;;;5075121;28;20178;-71
2023/02/26 08:31:02;;;;;;;1.27;0.80;;;;;;;;;;5073444;28;20764;-70
2023/02/26 08:33:27;;;;;;;0.87;0.60;;;;;;;;;;5082609;28;20253;-71
2023/02/26 08:35:54;;;;;;;1.87;0.80;;;;;;;;;;5106291;27;20208;-70
2023/02/26 08:38:20;;;;;;;4.70;1.97;;;;;;;;;;5094323;28;20187;-71
2023/02/26 08:40:47;;;;;;;1.33;0.70;;;;;;;;;;5086870;28;20434;-71
2023/02/26 08:43:12;;;;;;;2.53;0.90;;;;;;;;;;5085129;28;20186;-72
2023/02/26 08:45:38;;;;;;;3.10;0.87;;;;;;;;;;5086619;28;20442;-73
2023/02/26 08:48:03;;;;;;;1.13;0.90;;;;;;;;;;5085140;28;20301;-73
2023/02/26 08:50:28;;;;;;;1.70;0.90;;;;;;;;;;5084460;28;20523;-74
2023/02/26 08:52:54;;;;;;;3.50;0.90;;;;;;;;;;5099115;28;20173;-73
2023/02/26 08:55:19;;;;;;;0.90;0.70;;;;;;;;;;5088990;28;20209;-69
2023/02/26 08:57:45;;;;;;;0.87;0.60;;;;;;;;;;5092723;28;20672;-71
2023/02/26 09:00:10;;;;;;;1.20;0.70;;;;;;;;;;5089029;28;20185;-71
2023/02/26 09:02:36;;;;;;;1.53;0.80;;;;;;;;;;5096407;28;20182;-73
2023/02/26 09:05:02;;;;;;;1.00;0.60;;;;;;;;;;5099530;28;20210;-68
2023/02/26 09:07:27;;;;;;;2.20;0.60;;;;;;;;;;5091329;28;20214;-72
2023/02/26 09:09:52;;;;;;;5.53;0.70;;;;;;;;;;5101007;28;20550;-69
2023/02/26 09:12:18;;;;;;;2.60;0.60;;;;;;;;;;5088260;28;20259;-68
2023/02/26 09:14:43;;;;;;;1.20;0.60;;;;;;;;;;5088580;28;20593;-69
2023/02/26 09:17:08;;;;;;;1.93;0.90;;;;;;;;;;5091587;28;22244;-72
2023/02/26 09:19:34;;;;;;;1.43;0.50;;;;;;;;;;5095252;28;20576;-70
2023/02/26 09:21:59;;;;;;;1.93;0.70;;;;;;;;;;5098406;28;20174;-67
2023/02/26 09:24:24;;;;;;;0.90;0.60;;;;;;;;;;5085312;28;20190;-71
2023/02/26 09:26:50;;;;;;;2.00;0.77;;;;;;;;;;5079209;22;21344;-72
2023/02/26 09:29:15;;;;;;;2.10;0.80;;;;;;;;;;5060242;28;20179;-72
2023/02/26 09:31:40;;;;;;;1.13;0.70;;;;;;;;;;5063666;28;20708;-73
2023/02/26 09:34:06;;;;;;;0.93;0.60;;;;;;;;;;5059618;28;20176;-72
2023/02/26 09:36:31;;;;;;;3.33;0.70;;;;;;;;;;5037395;28;20199;-72
2023/02/26 09:38:56;;;;;;;1.87;0.80;;;;;;;;;;5057189;28;20225;-72
2023/02/26 09:41:51;;;;;;;2.07;0.67;;;;;;;;;;5058035;28;20262;-73
2023/02/26 09:44:28;;;;;;;1.63;0.77;;;;;;;;;;5031114;28;20275;-73
2023/02/26 09:46:53;;;;;;;1.10;0.70;;;;;;;;;;5055371;28;20514;-73
2023/02/26 09:49:18;;;;;;;3.17;0.60;;;;;;;;;;5054710;28;20518;-73
2023/02/26 09:51:45;;;;;;;0.80;0.50;;;;;;;;;;5056340;28;21383;-72
2023/02/26 09:54:16;;;;;;;1.80;0.70;;;;;;;;;;5053417;28;20184;-72
2023/02/26 09:56:42;;;;;;;2.60;0.70;;;;;;;;;;5058086;28;20601;-71
2023/02/26 09:59:08;;;;;;;1.23;0.60;;;;;;;;;;5041837;28;20527;-72
2023/02/26 10:01:37;;;;;;;1.40;0.60;;;;;;;;;;5052892;28;20451;-72
2023/02/26 10:04:05;;;;;;;0.93;0.50;;;;;;;;;;5056714;28;20438;-72
2023/02/26 10:06:57;;;;;;;1.60;0.60;;;;;;;;;;5059498;28;20476;-72
2023/02/26 10:09:34;;;;;;;3.57;0.70;;;;;;;;;;5057803;28;20464;-72
2023/02/26 10:11:59;;;;;;;1.30;0.70;;;;;;;;;;5047467;28;20437;-72
2023/02/26 10:14:43;;;;;;;1.43;0.60;;;;;;;;;;5050467;28;20433;-72
2023/02/26 10:17:17;;;;;;;1.60;0.70;;;;;;;;;;5053620;28;20572;-72
2023/02/26 10:19:44;;;;;;;1.00;0.70;;;;;;;;;;5056138;28;20433;-71
2023/02/26 10:22:20;;;;;;;3.00;0.83;;;;;;;;;;5060190;28;20433;-72
2023/02/26 10:24:48;;;;;;;1.57;0.80;;;;;;;;;;5047819;28;20437;-71
2023/02/26 10:27:33;;;;;;;1.37;0.70;;;;;;;;;;5028348;28;20880;-72
2023/02/26 10:30:01;;;;;;;4.60;0.83;;;;;;;;;;5047913;28;20449;-71
2023/02/26 10:32:35;;;;;;;3.50;0.70;;;;;;;;;;5058277;28;20432;-72
2023/02/26 10:35:13;;;;;;;1.63;0.77;;;;;;;;;;5056635;28;20812;-72
2023/02/26 10:37:58;;;;;;;2.20;0.80;;;;;;;;;;5041824;28;20448;-71
2023/02/26 10:40:26;;;;;;;2.90;0.80;;;;;;;;;;5058446;28;20935;-71
2023/02/26 10:42:52;;;;;;;1.00;0.60;;;;;;;;;;5058774;28;20429;-71
2023/02/26 10:45:31;;;;;;;2.90;0.97;;;;;;;;;;5050715;28;20942;-71
2023/02/26 10:48:02;;;;;;;3.23;1.10;;;;;;;;;;5052686;28;20206;-71
2023/02/26 10:50:28;;;;;;;1.10;0.60;;;;;;;;;;5059590;28;20433;-71
2023/02/26 10:52:54;;;;;;;2.80;0.90;;;;;;;;;;5045978;28;20751;-71
2023/02/26 10:55:25;;;;;;;4.40;1.13;;;;;;;;;;5061320;28;20191;-72
2023/02/26 10:58:19;;;;;;;2.73;0.80;;;;;;;;;;5058976;28;20226;-71
2023/02/26 11:00:47;;;;;;;0.80;0.60;;;;;;;;;;5028205;28;20801;-71
2023/02/26 11:03:30;;;;;;;3.17;0.70;;;;;;;;;;5053758;28;20931;-71
2023/02/26 11:05:56;;;;;;;1.67;0.70;;;;;;;;;;5043107;28;20468;-71
2023/02/26 11:08:30;;;;;;;2.20;0.70;;;;;;;;;;5056580;28;20838;-71
2023/02/26 11:10:57;;;;;;;1.50;0.67;;;;;;;;;;5059457;28;20186;-71
2023/02/26 11:13:24;;;;;;;2.17;0.70;;;;;;;;;;5056442;28;20426;-71
2023/02/26 11:15:51;;;;;;;2.37;0.90;;;;;;;;;;5057123;28;20457;-71
2023/02/26 11:18:20;;;;;;;2.50;1.07;;;;;;;;;;5058918;28;20429;-71
2023/02/26 11:20:46;;;;;;;4.20;0.70;;;;;;;;;;5039500;28;20460;-71
2023/02/26 11:23:13;;;;;;;2.67;0.90;;;;;;;;;;5059788;28;20437;-71
2023/02/26 11:25:39;;;;;;;1.53;0.70;;;;;;;;;;5058656;28;20455;-71
2023/02/26 11:28:16;;;;;;;1.40;0.73;;;;;;;;;;5057414;28;20454;-71
2023/02/26 11:30:43;;;;;;;2.00;0.70;;;;;;;;;;5047072;28;20182;-71
2023/02/26 11:33:22;;;;;;;1.33;0.70;;;;;;;;;;5056327;28;20440;-71
2023/02/26 11:35:47;;;;;;;1.50;0.60;;;;;;;;;;5059466;28;20456;-71
2023/02/26 11:38:18;;;;;;;3.93;0.80;;;;;;;;;;5057471;28;20468;-71
2023/02/26 11:40:45;;;;;;;1.33;0.70;;;;;;;;;;5059011;28;20654;-71
2023/02/26 11:43:12;;;;;;;1.70;0.80;;;;;;;;;;5058616;28;20452;-71
2023/02/26 11:45:40;;;;;;;0.90;0.70;;;;;;;;;;5051862;28;20490;-71
2023/02/26 11:48:10;;;;;;;1.50;0.70;;;;;;;;;;5056002;28;20501;-71
2023/02/26 11:50:39;;;;;;;1.73;0.80;;;;;;;;;;5056934;28;21149;-71
2023/02/26 11:53:07;;;;;;;0.70;0.70;;;;;;;;;;5054092;28;21070;-72
2023/02/26 11:55:37;;;;;;;1.37;0.73;;;;;;;;;;5054503;28;20555;-71
2023/02/26 11:58:04;;;;;;;1.70;0.67;;;;;;;;;;5055765;28;20514;-71
2023/02/26 12:00:31;;;;;;;2.93;0.80;;;;;;;;;;5050473;28;20433;-71
2023/02/26 12:03:03;;;;;;;5.10;1.00;;;;;;;;;;5058440;28;20915;-71
2023/02/26 12:05:28;;;;;;;2.97;0.93;;;;;;;;;;5057948;28;20452;-71
2023/02/26 12:07:54;;;;;;;1.23;0.60;;;;;;;;;;5056967;28;20464;-71
2023/02/26 12:10:32;;;;;;;2.67;0.80;;;;;;;;;;5062743;28;20210;-71
2023/02/26 12:13:16;;;;;;;1.93;0.80;;;;;;;;;;5061286;28;20266;-72
2023/02/26 12:15:44;;;;;;;0.90;0.70;;;;;;;;;;5061277;28;20453;-71
2023/02/26 12:18:10;;;;;;;1.20;0.70;;;;;;;;;;5046752;28;20824;-71
2023/02/26 12:20:35;;;;;;;3.83;0.80;;;;;;;;;;5063374;28;20432;-71
2023/02/26 12:23:00;;;;;;;0.97;0.70;;;;;;;;;;5062556;28;20182;-71
2023/02/26 12:25:38;;;;;;;1.63;0.80;;;;;;;;;;5061582;28;20215;-71
2023/02/26 12:28:18;;;;;;;1.30;0.70;;;;;;;;;;5061772;28;20206;-71
2023/02/26 12:30:44;;;;;;;2.73;0.80;;;;;;;;;;5062494;28;20414;-71
2023/02/26 12:33:28;;;;;;;2.17;0.70;;;;;;;;;;5059973;28;20425;-71
2023/02/26 12:35:53;;;;;;;4.57;0.80;;;;;;;;;;5061464;28;20198;-71
2023/02/26 12:38:21;;;;;;;1.87;0.93;;;;;;;;;;5063642;28;20821;-71
2023/02/26 12:40:49;;;;;;;1.93;0.83;;;;;;;;;;5062624;28;20187;-71
2023/02/26 12:43:20;;;;;;;1.30;0.70;;;;;;;;;;5062106;28;20443;-71
2023/02/26 12:45:56;;;;;;;1.97;0.80;;;;;;;;;;5060866;28;20426;-72
2023/02/26 12:48:33;;;;;;;1.63;1.00;;;;;;;;;;5061275;28;20471;-71
2023/02/26 12:51:01;;;;;;;2.47;0.73;;;;;;;;;;5061990;28;20417;-72
2023/02/26 12:53:45;;;;;;;3.03;1.03;;;;;;;;;;5058913;28;20961;-71
2023/02/26 12:56:29;;;;;;;2.03;0.90;;;;;;;;;;5061793;28;20444;-71
2023/02/26 12:59:06;;;;;;;2.57;0.93;;;;;;;;;;5058768;28;20428;-71
2023/02/26 13:01:44;;;;;;;1.67;0.83;;;;;;;;;;5050877;28;20436;-71
2023/02/26 13:04:15;;;;;;;2.40;0.80;;;;;;;;;;5058619;28;20445;-70
2023/02/26 13:06:55;;;;;;;2.00;0.80;;;;;;;;;;5058882;28;20475;-71
2023/02/26 13:09:39;;;;;;;0.80;0.70;;;;;;;;;;5057407;28;20433;-71
2023/02/26 13:12:04;;;;;;;1.97;0.80;;;;;;;;;;5057688;28;20441;-71
2023/02/26 13:14:47;;;;;;;1.90;1.00;;;;;;;;;;5059739;28;20440;-71
2023/02/26 13:17:35;;;;;;;3.13;1.00;;;;;;;;;;5038202;28;20624;-70
2023/02/26 13:20:02;;;;;;;3.23;0.80;;;;;;;;;;5058232;28;20490;-71
2023/02/26 13:22:39;;;;;;;5.03;1.00;;;;;;;;;;5060401;28;20506;-71
2023/02/26 13:25:15;;;;;;;2.80;0.77;;;;;;;;;;5059540;28;20460;-71
2023/02/26 13:27:42;;;;;;;2.80;1.03;;;;;;;;;;5060561;28;20452;-70
2023/02/26 13:30:18;;;;;;;1.87;0.90;;;;;;;;;;5054344;28;20442;-71
2023/02/26 13:32:44;;;;;;;2.47;0.90;;;;;;;;;;5060550;28;20515;-71
2023/02/26 13:35:12;;;;;;;3.63;0.80;;;;;;;;;;5059025;28;20572;-71
2023/02/26 13:37:44;;;;;;;3.37;1.03;;;;;;;;;;5059599;28;20438;-71
2023/02/26 13:40:28;;;;;;;1.90;0.90;;;;;;;;;;5060441;28;20434;-72
2023/02/26 13:42:56;;;;;;;2.17;1.00;;;;;;;;;;5059716;28;20417;-71
2023/02/26 13:45:30;;;;;;;5.83;1.73;;;;;;;;;;5059826;28;21336;-70
2023/02/26 13:47:58;;;;;;;2.13;1.20;;;;;;;;;;5058648;28;20464;-71
2023/02/26 13:50:32;;;;;;;4.43;1.30;;;;;;;;;;5060730;28;20409;-70
2023/02/26 13:53:02;;;;;;;5.00;1.50;;;;;;;;;;5061105;28;20466;-70
2023/02/26 13:55:40;;;;;;;1.90;0.90;;;;;;;;;;5057202;28;20445;-71
2023/02/26 13:58:21;;;;;;;2.50;1.23;;;;;;;;;;5054618;28;20483;-71
2023/02/26 14:00:55;;;;;;;2.07;1.40;;;;;;;;;;5059687;28;20509;-71
2023/02/26 14:03:26;;;;;;;3.77;1.53;;;;;;;;;;5054382;28;20705;-71
2023/02/26 14:05:53;;;;;;;3.87;1.90;;;;;;;;;;5053221;28;20453;-71
2023/02/26 14:08:26;;;;;;;4.43;1.50;;;;;;;;;;5053118;28;20454;-71
2023/02/26 14:10:58;;;;;;;2.23;1.10;;;;;;;;;;5058106;28;20410;-72
2023/02/26 14:13:44;;;;;;;3.33;1.00;;;;;;;;;;5052405;28;22344;-71
2023/02/26 14:16:11;;;;;;;2.63;0.90;;;;;;;;;;5012753;28;20775;-71
2023/02/26 14:18:39;;;;;;;3.23;1.10;;;;;;;;;;5045577;28;20442;-71
2023/02/26 14:21:23;;;;;;;3.90;1.00;;;;;;;;;;5051071;28;21109;-71
2023/02/26 14:23:48;;;;;;;3.13;1.10;;;;;;;;;;5041259;28;20440;-71
2023/02/26 14:26:16;;;;;;;3.50;0.90;;;;;;;;;;5043351;28;20469;-73
2023/02/26 14:28:43;;;;;;;1.70;0.87;;;;;;;;;;5039036;28;20271;-70
2023/02/26 14:31:11;;;;;;;4.80;1.03;;;;;;;;;;5044655;28;20429;-73
2023/02/26 14:34:00;;;;;;;4.60;1.00;;;;;;;;;;5037736;28;20457;-73
2023/02/26 14:36:30;;;;;;;2.67;0.80;;;;;;;;;;5031287;28;20553;-72
2023/02/26 14:38:57;;;;;;;1.27;0.70;;;;;;;;;;5036807;28;20939;-70
2023/02/26 14:41:25;;;;;;;0.97;0.70;;;;;;;;;;5056584;28;20456;-71
2023/02/26 14:44:14;;;;;;;3.63;1.27;;;;;;;;;;5050271;28;20532;-71
2023/02/26 14:46:40;;;;;;;3.90;1.23;;;;;;;;;;5046941;28;20504;-71
2023/02/26 14:49:08;;;;;;;3.63;1.00;;;;;;;;;;5036516;28;21063;-71
2023/02/26 14:51:39;;;;;;;1.67;1.00;;;;;;;;;;5040255;28;20190;-71
2023/02/26 14:54:07;;;;;;;4.60;1.50;;;;;;;;;;5048501;28;20472;-71
2023/02/26 14:56:42;;;;;;;3.70;1.07;;;;;;;;;;5042737;28;20922;-70
2023/02/26 14:59:16;;;;;;;2.90;1.00;;;;;;;;;;5055151;28;20812;-71
2023/02/26 15:01:56;;;;;;;3.50;1.00;;;;;;;;;;5055705;28;20419;-71
2023/02/26 15:04:24;;;;;;;4.23;1.10;;;;;;;;;;5059292;28;20425;-71